Aviation Digital Data Service (ADDS)

Output produced by METARs form (1658 UTC 16 June 2019)
found at http://www.aviationweather.gov/metar/data/
 
TAF MYGF 161030Z 1612/1712 14010KT 9999 SHRA FEW016CB SCT018 BKN060 
     PROB30 
     TEMPO 1616/1621 14010G20KT 4800 TSRA FEW014 BKN016CB BKN030
       
MYNN 161030Z 1612/1712 13008KT 9999 SCT016CB SCT060 BKN200 
     PROB30 
     TEMPO 1618/1703 VRB10KT 4800 TSRA BKN016CB BKN030